Terminal Aerodrome Forecast
Issued by NWS

Home | Current Version | Previous Version | Text Only | Print | Product List | Glossary On
Versions: 1 2 3 4 5 6 7 8 9 10 11 12 13 14 15 16 17 18 19 20 21 22 23 24 25 26 27 28 29 30 31 32 33 34
061
FTUS46 KLOX 020057 AAA
TAFLAX
TAF AMD
KLAX 020057Z 0201/0306 26012KT P6SM SCT012 SCT025
      TEMPO 0201/0204 SCT012 BKN025
     FM020400 26005KT P6SM BKN012
     FM021100 VRB03KT P6SM OVC017
     FM021700 22006KT P6SM SCT022 SCT250
     FM022000 26010G16KT P6SM SCT025 SCT250
     FM030400 26005KT P6SM SCT012 BKN250=

USA.gov is the U.S. government's official web portal to all federal, state and local government web resources and services.